sensor_id;sensor_type;location;lat;lon;timestamp;P1;durP1;ratioP1;P2;durP2;ratioP2
71910;SDS011;59783;52.232;5.170;2023-02-01T00:00:44;29.50;;;14.23;;
71910;SDS011;59783;52.232;5.170;2023-02-01T00:03:09;24.30;;;14.20;;
71910;SDS011;59783;52.232;5.170;2023-02-01T00:05:36;19.05;;;14.38;;
71910;SDS011;59783;52.232;5.170;2023-02-01T00:08:01;24.55;;;15.63;;
71910;SDS011;59783;52.232;5.170;2023-02-01T00:10:26;32.65;;;15.52;;
71910;SDS011;59783;52.232;5.170;2023-02-01T00:12:52;47.33;;;16.23;;
71910;SDS011;59783;52.232;5.170;2023-02-01T00:15:17;32.33;;;13.67;;
71910;SDS011;59783;52.232;5.170;2023-02-01T00:17:43;28.05;;;14.65;;
71910;SDS011;59783;52.232;5.170;2023-02-01T00:20:08;30.23;;;14.87;;
71910;SDS011;59783;52.232;5.170;2023-02-01T00:22:34;36.75;;;16.35;;
71910;SDS011;59783;52.232;5.170;2023-02-01T00:24:59;21.60;;;14.10;;
71910;SDS011;59783;52.232;5.170;2023-02-01T00:27:24;31.57;;;15.13;;
71910;SDS011;59783;52.232;5.170;2023-02-01T00:29:50;35.03;;;15.03;;
71910;SDS011;59783;52.232;5.170;2023-02-01T00:32:15;34.63;;;13.73;;
71910;SDS011;59783;52.232;5.170;2023-02-01T00:34:40;28.03;;;14.47;;
71910;SDS011;59783;52.232;5.170;2023-02-01T00:37:05;37.57;;;14.67;;
71910;SDS011;59783;52.232;5.170;2023-02-01T00:39:30;27.33;;;14.20;;
71910;SDS011;59783;52.232;5.170;2023-02-01T00:41:56;36.50;;;14.00;;
71910;SDS011;59783;52.232;5.170;2023-02-01T00:44:21;33.63;;;15.77;;
71910;SDS011;59783;52.232;5.170;2023-02-01T00:46:46;25.40;;;14.77;;
71910;SDS011;59783;52.232;5.170;2023-02-01T00:49:11;27.07;;;14.50;;
71910;SDS011;59783;52.232;5.170;2023-02-01T00:51:36;28.53;;;14.20;;
71910;SDS011;59783;52.232;5.170;2023-02-01T00:54:02;30.50;;;14.87;;
71910;SDS011;59783;52.232;5.170;2023-02-01T00:56:28;32.53;;;15.20;;
71910;SDS011;59783;52.232;5.170;2023-02-01T00:58:53;29.33;;;14.60;;
71910;SDS011;59783;52.232;5.170;2023-02-01T01:01:20;34.03;;;14.43;;
71910;SDS011;59783;52.232;5.170;2023-02-01T01:03:46;31.25;;;14.50;;
71910;SDS011;59783;52.232;5.170;2023-02-01T01:06:13;29.60;;;13.65;;
71910;SDS011;59783;52.232;5.170;2023-02-01T01:08:38;29.30;;;14.77;;
71910;SDS011;59783;52.232;5.170;2023-02-01T01:11:05;34.60;;;14.75;;
71910;SDS011;59783;52.232;5.170;2023-02-01T01:13:30;39.58;;;14.80;;
71910;SDS011;59783;52.232;5.170;2023-02-01T01:15:55;25.27;;;14.50;;
71910;SDS011;59783;52.232;5.170;2023-02-01T01:18:20;22.53;;;14.03;;
71910;SDS011;59783;52.232;5.170;2023-02-01T01:20:47;26.80;;;15.27;;
71910;SDS011;59783;52.232;5.170;2023-02-01T01:23:12;39.10;;;13.65;;
71910;SDS011;59783;52.232;5.170;2023-02-01T01:25:38;28.97;;;12.87;;
71910;SDS011;59783;52.232;5.170;2023-02-01T01:28:03;22.95;;;13.60;;
71910;SDS011;59783;52.232;5.170;2023-02-01T01:30:28;25.50;;;13.70;;
71910;SDS011;59783;52.232;5.170;2023-02-01T01:32:53;26.60;;;14.23;;
71910;SDS011;59783;52.232;5.170;2023-02-01T01:35:18;25.40;;;13.33;;
71910;SDS011;59783;52.232;5.170;2023-02-01T01:37:44;27.50;;;12.93;;
71910;SDS011;59783;52.232;5.170;2023-02-01T01:40:09;22.73;;;13.63;;
71910;SDS011;59783;52.232;5.170;2023-02-01T01:42:38;31.38;;;14.98;;
71910;SDS011;59783;52.232;5.170;2023-02-01T01:47:35;38.92;;;14.48;;
71910;SDS011;59783;52.232;5.170;2023-02-01T01:50:02;33.58;;;14.23;;
71910;SDS011;59783;52.232;5.170;2023-02-01T01:52:28;24.10;;;14.27;;
71910;SDS011;59783;52.232;5.170;2023-02-01T01:54:53;36.80;;;15.37;;
71910;SDS011;59783;52.232;5.170;2023-02-01T01:57:29;27.55;;;13.98;;
71910;SDS011;59783;52.232;5.170;2023-02-01T02:00:08;29.08;;;14.45;;
71910;SDS011;59783;52.232;5.170;2023-02-01T02:02:34;33.00;;;13.13;;
71910;SDS011;59783;52.232;5.170;2023-02-01T02:05:00;34.65;;;14.02;;
71910;SDS011;59783;52.232;5.170;2023-02-01T02:07:26;22.50;;;12.47;;
71910;SDS011;59783;52.232;5.170;2023-02-01T02:09:52;29.83;;;13.57;;
71910;SDS011;59783;52.232;5.170;2023-02-01T02:12:18;25.25;;;13.05;;
71910;SDS011;59783;52.232;5.170;2023-02-01T02:14:43;35.87;;;14.93;;
71910;SDS011;59783;52.232;5.170;2023-02-01T02:22:16;32.17;;;14.30;;
71910;SDS011;59783;52.232;5.170;2023-02-01T02:40:48;42.25;;;14.35;;
71910;SDS011;59783;52.232;5.170;2023-02-01T02:46:25;27.75;;;14.75;;
71910;SDS011;59783;52.232;5.170;2023-02-01T02:51:35;31.30;;;15.20;;
71910;SDS011;59783;52.232;5.170;2023-02-01T02:54:24;33.50;;;14.40;;
71910;SDS011;59783;52.232;5.170;2023-02-01T02:57:09;38.15;;;14.80;;
71910;SDS011;59783;52.232;5.170;2023-02-01T02:59:54;36.88;;;13.93;;
71910;SDS011;59783;52.232;5.170;2023-02-01T03:02:39;36.70;;;13.85;;
71910;SDS011;59783;52.232;5.170;2023-02-01T03:05:23;34.47;;;14.65;;
71910;SDS011;59783;52.232;5.170;2023-02-01T03:10:17;43.83;;;15.48;;
71910;SDS011;59783;52.232;5.170;2023-02-01T03:12:43;27.40;;;14.38;;
71910;SDS011;59783;52.232;5.170;2023-02-01T03:15:23;28.20;;;13.57;;
71910;SDS011;59783;52.232;5.170;2023-02-01T03:17:51;34.47;;;13.82;;
71910;SDS011;59783;52.232;5.170;2023-02-01T03:20:17;16.73;;;13.13;;
71910;SDS011;59783;52.232;5.170;2023-02-01T03:22:44;31.60;;;14.52;;
71910;SDS011;59783;52.232;5.170;2023-02-01T03:25:12;36.72;;;15.25;;
71910;SDS011;59783;52.232;5.170;2023-02-01T03:32:36;32.25;;;15.95;;
71910;SDS011;59783;52.232;5.170;2023-02-01T03:37:53;39.35;;;14.70;;
71910;SDS011;59783;52.232;5.170;2023-02-01T03:40:21;32.85;;;15.35;;
71910;SDS011;59783;52.232;5.170;2023-02-01T03:42:48;30.65;;;14.43;;
71910;SDS011;59783;52.232;5.170;2023-02-01T03:45:26;45.58;;;15.77;;
71910;SDS011;59783;52.232;5.170;2023-02-01T03:47:54;33.65;;;14.48;;
71910;SDS011;59783;52.232;5.170;2023-02-01T03:50:20;35.22;;;15.27;;
71910;SDS011;59783;52.232;5.170;2023-02-01T03:52:54;28.27;;;14.95;;
71910;SDS011;59783;52.232;5.170;2023-02-01T03:55:21;44.47;;;15.73;;
71910;SDS011;59783;52.232;5.170;2023-02-01T03:57:51;34.30;;;16.08;;
71910;SDS011;59783;52.232;5.170;2023-02-01T04:00:19;35.60;;;16.05;;
71910;SDS011;59783;52.232;5.170;2023-02-01T04:02:46;37.75;;;15.68;;
71910;SDS011;59783;52.232;5.170;2023-02-01T04:05:11;28.70;;;16.07;;
71910;SDS011;59783;52.232;5.170;2023-02-01T04:07:37;22.50;;;15.60;;
71910;SDS011;59783;52.232;5.170;2023-02-01T04:10:02;42.43;;;16.37;;
71910;SDS011;59783;52.232;5.170;2023-02-01T04:12:28;50.13;;;17.17;;
71910;SDS011;59783;52.232;5.170;2023-02-01T04:14:53;39.47;;;15.95;;
71910;SDS011;59783;52.232;5.170;2023-02-01T04:17:18;42.70;;;15.33;;
71910;SDS011;59783;52.232;5.170;2023-02-01T04:19:44;38.83;;;16.17;;
71910;SDS011;59783;52.232;5.170;2023-02-01T04:22:09;27.33;;;15.23;;
71910;SDS011;59783;52.232;5.170;2023-02-01T04:24:34;45.93;;;16.40;;
71910;SDS011;59783;52.232;5.170;2023-02-01T04:26:59;42.58;;;16.60;;
71910;SDS011;59783;52.232;5.170;2023-02-01T04:29:25;37.13;;;16.65;;
71910;SDS011;59783;52.232;5.170;2023-02-01T04:31:50;33.30;;;16.30;;
71910;SDS011;59783;52.232;5.170;2023-02-01T04:34:15;39.77;;;15.40;;
71910;SDS011;59783;52.232;5.170;2023-02-01T04:36:40;37.63;;;15.13;;
71910;SDS011;59783;52.232;5.170;2023-02-01T04:39:06;35.07;;;15.83;;
71910;SDS011;59783;52.232;5.170;2023-02-01T04:41:31;36.13;;;15.32;;
71910;SDS011;59783;52.232;5.170;2023-02-01T04:43:56;37.40;;;15.80;;
71910;SDS011;59783;52.232;5.170;2023-02-01T04:46:21;35.60;;;16.80;;
71910;SDS011;59783;52.232;5.170;2023-02-01T04:48:46;30.57;;;16.43;;
71910;SDS011;59783;52.232;5.170;2023-02-01T04:51:12;32.63;;;16.70;;
71910;SDS011;59783;52.232;5.170;2023-02-01T04:53:37;26.65;;;15.50;;
71910;SDS011;59783;52.232;5.170;2023-02-01T04:56:03;32.33;;;15.10;;
71910;SDS011;59783;52.232;5.170;2023-02-01T04:58:29;27.75;;;16.05;;
71910;SDS011;59783;52.232;5.170;2023-02-01T05:00:54;28.57;;;14.83;;
71910;SDS011;59783;52.232;5.170;2023-02-01T05:03:19;38.67;;;14.70;;
71910;SDS011;59783;52.232;5.170;2023-02-01T05:05:46;28.58;;;16.00;;
71910;SDS011;59783;52.232;5.170;2023-02-01T05:08:11;36.40;;;15.55;;
71910;SDS011;59783;52.232;5.170;2023-02-01T05:10:36;34.70;;;15.90;;
71910;SDS011;59783;52.232;5.170;2023-02-01T05:13:02;36.70;;;17.73;;
71910;SDS011;59783;52.232;5.170;2023-02-01T05:15:45;37.72;;;17.98;;
71910;SDS011;59783;52.232;5.170;2023-02-01T05:18:11;25.73;;;16.25;;
71910;SDS011;59783;52.232;5.170;2023-02-01T05:20:36;27.08;;;16.60;;
71910;SDS011;59783;52.232;5.170;2023-02-01T05:23:01;37.08;;;17.15;;
71910;SDS011;59783;52.232;5.170;2023-02-01T05:25:26;47.13;;;18.47;;
71910;SDS011;59783;52.232;5.170;2023-02-01T05:27:52;37.60;;;17.27;;
71910;SDS011;59783;52.232;5.170;2023-02-01T05:30:18;30.95;;;15.93;;
71910;SDS011;59783;52.232;5.170;2023-02-01T05:32:43;40.17;;;16.93;;
71910;SDS011;59783;52.232;5.170;2023-02-01T05:35:08;32.57;;;15.83;;
71910;SDS011;59783;52.232;5.170;2023-02-01T05:37:33;32.97;;;15.10;;
71910;SDS011;59783;52.232;5.170;2023-02-01T05:39:59;28.93;;;16.27;;
71910;SDS011;59783;52.232;5.170;2023-02-01T05:42:24;30.27;;;15.80;;
71910;SDS011;59783;52.232;5.170;2023-02-01T05:44:49;26.63;;;16.13;;
71910;SDS011;59783;52.232;5.170;2023-02-01T05:47:14;28.70;;;16.93;;
71910;SDS011;59783;52.232;5.170;2023-02-01T05:49:39;37.47;;;16.23;;
71910;SDS011;59783;52.232;5.170;2023-02-01T05:52:05;31.95;;;17.10;;
71910;SDS011;59783;52.232;5.170;2023-02-01T05:54:30;24.63;;;17.95;;
71910;SDS011;59783;52.232;5.170;2023-02-01T05:56:55;31.07;;;16.53;;
71910;SDS011;59783;52.232;5.170;2023-02-01T05:59:20;32.70;;;15.20;;
71910;SDS011;59783;52.232;5.170;2023-02-01T06:01:45;32.20;;;17.53;;
71910;SDS011;59783;52.232;5.170;2023-02-01T06:04:11;32.70;;;15.53;;
71910;SDS011;59783;52.232;5.170;2023-02-01T06:06:36;39.83;;;16.30;;
71910;SDS011;59783;52.232;5.170;2023-02-01T06:09:02;30.85;;;16.10;;
71910;SDS011;59783;52.232;5.170;2023-02-01T06:11:28;34.83;;;18.60;;
71910;SDS011;59783;52.232;5.170;2023-02-01T06:13:53;32.07;;;17.40;;
71910;SDS011;59783;52.232;5.170;2023-02-01T06:16:18;33.67;;;16.52;;
71910;SDS011;59783;52.232;5.170;2023-02-01T06:18:44;30.53;;;16.57;;
71910;SDS011;59783;52.232;5.170;2023-02-01T06:21:09;31.87;;;16.40;;
71910;SDS011;59783;52.232;5.170;2023-02-01T06:23:34;33.37;;;16.93;;
71910;SDS011;59783;52.232;5.170;2023-02-01T06:26:00;29.75;;;16.45;;
71910;SDS011;59783;52.232;5.170;2023-02-01T06:28:26;30.88;;;16.30;;
71910;SDS011;59783;52.232;5.170;2023-02-01T06:30:52;28.63;;;15.80;;
71910;SDS011;59783;52.232;5.170;2023-02-01T06:33:17;34.23;;;16.50;;
71910;SDS011;59783;52.232;5.170;2023-02-01T06:35:43;35.43;;;17.47;;
71910;SDS011;59783;52.232;5.170;2023-02-01T06:38:09;36.38;;;16.48;;
71910;SDS011;59783;52.232;5.170;2023-02-01T06:40:34;34.80;;;16.25;;
71910;SDS011;59783;52.232;5.170;2023-02-01T06:43:00;37.63;;;16.83;;
71910;SDS011;59783;52.232;5.170;2023-02-01T06:45:26;19.25;;;14.65;;
71910;SDS011;59783;52.232;5.170;2023-02-01T06:47:51;27.57;;;17.97;;
71910;SDS011;59783;52.232;5.170;2023-02-01T06:50:16;27.60;;;16.13;;
71910;SDS011;59783;52.232;5.170;2023-02-01T06:52:41;35.08;;;17.05;;
71910;SDS011;59783;52.232;5.170;2023-02-01T06:55:06;30.50;;;15.87;;
71910;SDS011;59783;52.232;5.170;2023-02-01T06:57:32;33.95;;;16.77;;
71910;SDS011;59783;52.232;5.170;2023-02-01T06:59:59;39.20;;;16.48;;
71910;SDS011;59783;52.232;5.170;2023-02-01T07:02:24;25.83;;;15.13;;
71910;SDS011;59783;52.232;5.170;2023-02-01T07:04:49;30.02;;;15.35;;
71910;SDS011;59783;52.232;5.170;2023-02-01T07:07:15;37.63;;;16.33;;
71910;SDS011;59783;52.232;5.170;2023-02-01T07:09:40;27.77;;;15.50;;
71910;SDS011;59783;52.232;5.170;2023-02-01T07:12:05;32.57;;;15.73;;
71910;SDS011;59783;52.232;5.170;2023-02-01T07:14:31;40.45;;;17.30;;
71910;SDS011;59783;52.232;5.170;2023-02-01T07:16:56;39.73;;;16.73;;
71910;SDS011;59783;52.232;5.170;2023-02-01T07:19:21;33.00;;;16.95;;
71910;SDS011;59783;52.232;5.170;2023-02-01T07:21:46;30.80;;;16.30;;
71910;SDS011;59783;52.232;5.170;2023-02-01T07:24:11;31.23;;;15.33;;
71910;SDS011;59783;52.232;5.170;2023-02-01T07:26:37;30.10;;;15.87;;
71910;SDS011;59783;52.232;5.170;2023-02-01T07:29:02;26.80;;;14.67;;
71910;SDS011;59783;52.232;5.170;2023-02-01T07:31:27;31.60;;;15.37;;
71910;SDS011;59783;52.232;5.170;2023-02-01T07:33:53;29.92;;;16.20;;
71910;SDS011;59783;52.232;5.170;2023-02-01T07:36:21;30.58;;;16.05;;
71910;SDS011;59783;52.232;5.170;2023-02-01T07:38:46;20.27;;;14.40;;
71910;SDS011;59783;52.232;5.170;2023-02-01T07:41:15;37.35;;;16.45;;
71910;SDS011;59783;52.232;5.170;2023-02-01T07:43:41;27.65;;;15.38;;
71910;SDS011;59783;52.232;5.170;2023-02-01T07:46:06;33.40;;;15.60;;
71910;SDS011;59783;52.232;5.170;2023-02-01T07:48:31;25.95;;;16.83;;
71910;SDS011;59783;52.232;5.170;2023-02-01T07:55:51;34.63;;;16.27;;
71910;SDS011;59783;52.232;5.170;2023-02-01T07:58:16;37.53;;;15.83;;
71910;SDS011;59783;52.232;5.170;2023-02-01T08:00:42;48.10;;;16.43;;
71910;SDS011;59783;52.232;5.170;2023-02-01T08:03:26;32.65;;;15.32;;
71910;SDS011;59783;52.232;5.170;2023-02-01T08:05:54;36.50;;;15.77;;
71910;SDS011;59783;52.232;5.170;2023-02-01T08:08:20;30.52;;;16.48;;
71910;SDS011;59783;52.232;5.170;2023-02-01T08:10:45;26.50;;;14.83;;
71910;SDS011;59783;52.232;5.170;2023-02-01T08:13:10;26.27;;;15.13;;
71910;SDS011;59783;52.232;5.170;2023-02-01T08:15:35;26.70;;;15.27;;
71910;SDS011;59783;52.232;5.170;2023-02-01T08:18:01;37.23;;;17.27;;
71910;SDS011;59783;52.232;5.170;2023-02-01T08:20:27;28.67;;;15.98;;
71910;SDS011;59783;52.232;5.170;2023-02-01T08:22:52;34.50;;;15.60;;
71910;SDS011;59783;52.232;5.170;2023-02-01T08:25:18;36.30;;;15.88;;
71910;SDS011;59783;52.232;5.170;2023-02-01T08:27:43;30.97;;;15.47;;
71910;SDS011;59783;52.232;5.170;2023-02-01T08:30:09;39.80;;;17.65;;
71910;SDS011;59783;52.232;5.170;2023-02-01T08:32:34;36.47;;;16.15;;
71910;SDS011;59783;52.232;5.170;2023-02-01T08:35:00;28.80;;;16.13;;
71910;SDS011;59783;52.232;5.170;2023-02-01T08:37:25;34.07;;;18.40;;
71910;SDS011;59783;52.232;5.170;2023-02-01T08:39:50;24.87;;;15.77;;
71910;SDS011;59783;52.232;5.170;2023-02-01T08:42:16;29.87;;;16.23;;
71910;SDS011;59783;52.232;5.170;2023-02-01T08:45:00;22.10;;;15.70;;
71910;SDS011;59783;52.232;5.170;2023-02-01T08:47:25;32.60;;;16.33;;
71910;SDS011;59783;52.232;5.170;2023-02-01T08:49:50;27.43;;;15.50;;
71910;SDS011;59783;52.232;5.170;2023-02-01T08:52:16;32.95;;;15.93;;
71910;SDS011;59783;52.232;5.170;2023-02-01T08:54:42;27.30;;;16.23;;
71910;SDS011;59783;52.232;5.170;2023-02-01T08:57:07;32.67;;;16.90;;
71910;SDS011;59783;52.232;5.170;2023-02-01T08:59:32;27.50;;;16.83;;
71910;SDS011;59783;52.232;5.170;2023-02-01T09:01:57;31.57;;;14.80;;
71910;SDS011;59783;52.232;5.170;2023-02-01T09:04:23;32.10;;;16.40;;
71910;SDS011;59783;52.232;5.170;2023-02-01T09:06:48;23.15;;;15.05;;
71910;SDS011;59783;52.232;5.170;2023-02-01T09:09:13;28.93;;;15.90;;
71910;SDS011;59783;52.232;5.170;2023-02-01T09:11:38;27.58;;;16.33;;
71910;SDS011;59783;52.232;5.170;2023-02-01T09:14:03;35.55;;;16.27;;
71910;SDS011;59783;52.232;5.170;2023-02-01T09:16:29;29.10;;;15.50;;
71910;SDS011;59783;52.232;5.170;2023-02-01T09:18:54;29.93;;;16.33;;
71910;SDS011;59783;52.232;5.170;2023-02-01T09:21:19;25.70;;;17.13;;
71910;SDS011;59783;52.232;5.170;2023-02-01T09:23:45;26.77;;;15.43;;
71910;SDS011;59783;52.232;5.170;2023-02-01T09:26:13;34.00;;;16.35;;
71910;SDS011;59783;52.232;5.170;2023-02-01T09:28:38;26.80;;;15.43;;
71910;SDS011;59783;52.232;5.170;2023-02-01T09:31:04;34.83;;;15.82;;
71910;SDS011;59783;52.232;5.170;2023-02-01T09:33:29;31.97;;;16.93;;
71910;SDS011;59783;52.232;5.170;2023-02-01T09:35:55;20.67;;;14.52;;
71910;SDS011;59783;52.232;5.170;2023-02-01T09:38:20;39.22;;;17.98;;
71910;SDS011;59783;52.232;5.170;2023-02-01T09:40:46;31.98;;;16.27;;
71910;SDS011;59783;52.232;5.170;2023-02-01T09:43:20;29.33;;;16.52;;
71910;SDS011;59783;52.232;5.170;2023-02-01T09:48:32;30.75;;;16.38;;
71910;SDS011;59783;52.232;5.170;2023-02-01T09:51:00;32.90;;;14.90;;
71910;SDS011;59783;52.232;5.170;2023-02-01T09:53:28;31.05;;;16.83;;
71910;SDS011;59783;52.232;5.170;2023-02-01T09:56:18;30.20;;;15.10;;
71910;SDS011;59783;52.232;5.170;2023-02-01T10:01:28;40.35;;;17.67;;
71910;SDS011;59783;52.232;5.170;2023-02-01T10:04:07;46.65;;;17.30;;
71910;SDS011;59783;52.232;5.170;2023-02-01T10:16:56;43.40;;;17.23;;
71910;SDS011;59783;52.232;5.170;2023-02-01T10:19:47;57.80;;;19.23;;
71910;SDS011;59783;52.232;5.170;2023-02-01T10:27:41;37.33;;;19.77;;
71910;SDS011;59783;52.232;5.170;2023-02-01T10:30:26;47.03;;;19.55;;
71910;SDS011;59783;52.232;5.170;2023-02-01T10:32:55;45.22;;;18.80;;
71910;SDS011;59783;52.232;5.170;2023-02-01T10:35:22;25.83;;;16.10;;
71910;SDS011;59783;52.232;5.170;2023-02-01T10:37:48;40.85;;;17.92;;
71910;SDS011;59783;52.232;5.170;2023-02-01T10:40:16;49.38;;;19.27;;
71910;SDS011;59783;52.232;5.170;2023-02-01T10:42:43;42.65;;;19.33;;
71910;SDS011;59783;52.232;5.170;2023-02-01T10:45:22;35.05;;;17.67;;
71910;SDS011;59783;52.232;5.170;2023-02-01T10:47:48;36.67;;;18.30;;
71910;SDS011;59783;52.232;5.170;2023-02-01T10:50:31;43.08;;;19.67;;
71910;SDS011;59783;52.232;5.170;2023-02-01T10:53:15;54.22;;;19.50;;
71910;SDS011;59783;52.232;5.170;2023-02-01T10:58:17;45.10;;;19.55;;
71910;SDS011;59783;52.232;5.170;2023-02-01T11:00:44;30.75;;;17.52;;
71910;SDS011;59783;52.232;5.170;2023-02-01T11:03:20;36.83;;;19.52;;
71910;SDS011;59783;52.232;5.170;2023-02-01T11:05:46;42.80;;;18.55;;
71910;SDS011;59783;52.232;5.170;2023-02-01T11:08:14;48.22;;;19.00;;
71910;SDS011;59783;52.232;5.170;2023-02-01T11:13:11;43.65;;;17.83;;
71910;SDS011;59783;52.232;5.170;2023-02-01T11:15:36;37.17;;;19.23;;
71910;SDS011;59783;52.232;5.170;2023-02-01T11:18:16;48.70;;;18.00;;
71910;SDS011;59783;52.232;5.170;2023-02-01T11:20:41;54.47;;;17.98;;
71910;SDS011;59783;52.232;5.170;2023-02-01T11:23:13;39.13;;;15.95;;
71910;SDS011;59783;52.232;5.170;2023-02-01T11:25:40;40.35;;;16.52;;
71910;SDS011;59783;52.232;5.170;2023-02-01T11:28:12;37.42;;;16.50;;
71910;SDS011;59783;52.232;5.170;2023-02-01T11:30:38;50.70;;;17.65;;
71910;SDS011;59783;52.232;5.170;2023-02-01T11:33:05;53.45;;;16.33;;
71910;SDS011;59783;52.232;5.170;2023-02-01T11:35:30;54.20;;;16.50;;
71910;SDS011;59783;52.232;5.170;2023-02-01T11:37:59;38.83;;;17.30;;
71910;SDS011;59783;52.232;5.170;2023-02-01T11:40:27;46.20;;;17.13;;
71910;SDS011;59783;52.232;5.170;2023-02-01T11:42:53;39.15;;;16.83;;
71910;SDS011;59783;52.232;5.170;2023-02-01T11:47:44;38.40;;;15.83;;
71910;SDS011;59783;52.232;5.170;2023-02-01T11:53:20;44.95;;;17.73;;
71910;SDS011;59783;52.232;5.170;2023-02-01T12:01:11;35.58;;;17.05;;
71910;SDS011;59783;52.232;5.170;2023-02-01T12:04:00;33.17;;;16.45;;
71910;SDS011;59783;52.232;5.170;2023-02-01T12:11:32;30.67;;;17.15;;
71910;SDS011;59783;52.232;5.170;2023-02-01T12:16:32;44.80;;;16.98;;
71910;SDS011;59783;52.232;5.170;2023-02-01T12:26:57;44.83;;;15.73;;
71910;SDS011;59783;52.232;5.170;2023-02-01T12:34:51;33.33;;;16.45;;
71910;SDS011;59783;52.232;5.170;2023-02-01T12:37:22;33.53;;;16.45;;
71910;SDS011;59783;52.232;5.170;2023-02-01T12:42:24;38.42;;;15.85;;
71910;SDS011;59783;52.232;5.170;2023-02-01T12:55:23;44.03;;;16.60;;
71910;SDS011;59783;52.232;5.170;2023-02-01T12:57:50;43.28;;;16.25;;
71910;SDS011;59783;52.232;5.170;2023-02-01T13:02:43;48.93;;;17.43;;
71910;SDS011;59783;52.232;5.170;2023-02-01T13:08:00;29.70;;;16.70;;
71910;SDS011;59783;52.232;5.170;2023-02-01T13:10:42;30.73;;;17.02;;
71910;SDS011;59783;52.232;5.170;2023-02-01T13:15:39;28.25;;;16.67;;
71910;SDS011;59783;52.232;5.170;2023-02-01T13:18:05;45.38;;;16.17;;
71910;SDS011;59783;52.232;5.170;2023-02-01T13:20:36;41.15;;;15.95;;
71910;SDS011;59783;52.232;5.170;2023-02-01T13:23:18;27.35;;;16.50;;
71910;SDS011;59783;52.232;5.170;2023-02-01T13:25:50;37.20;;;16.83;;
71910;SDS011;59783;52.232;5.170;2023-02-01T13:28:26;28.48;;;16.63;;
71910;SDS011;59783;52.232;5.170;2023-02-01T13:43:36;34.17;;;16.33;;
71910;SDS011;59783;52.232;5.170;2023-02-01T13:46:08;32.65;;;15.38;;
71910;SDS011;59783;52.232;5.170;2023-02-01T13:50:59;35.93;;;16.70;;
71910;SDS011;59783;52.232;5.170;2023-02-01T13:58:22;28.42;;;17.20;;
71910;SDS011;59783;52.232;5.170;2023-02-01T14:00:53;35.92;;;16.15;;
71910;SDS011;59783;52.232;5.170;2023-02-01T14:03:43;44.78;;;16.95;;
71910;SDS011;59783;52.232;5.170;2023-02-01T14:06:17;44.63;;;15.93;;
71910;SDS011;59783;52.232;5.170;2023-02-01T14:08:46;33.65;;;16.55;;
71910;SDS011;59783;52.232;5.170;2023-02-01T14:11:37;38.97;;;17.42;;
71910;SDS011;59783;52.232;5.170;2023-02-01T14:19:24;27.98;;;15.30;;
71910;SDS011;59783;52.232;5.170;2023-02-01T14:21:54;49.40;;;16.02;;
71910;SDS011;59783;52.232;5.170;2023-02-01T14:24:27;36.35;;;16.50;;
71910;SDS011;59783;52.232;5.170;2023-02-01T14:26:53;37.50;;;16.77;;
71910;SDS011;59783;52.232;5.170;2023-02-01T14:29:25;31.00;;;16.45;;
71910;SDS011;59783;52.232;5.170;2023-02-01T14:34:24;38.60;;;16.67;;
71910;SDS011;59783;52.232;5.170;2023-02-01T14:36:53;36.67;;;17.65;;
71910;SDS011;59783;52.232;5.170;2023-02-01T14:39:23;36.38;;;16.58;;
71910;SDS011;59783;52.232;5.170;2023-02-01T14:41:51;41.55;;;16.70;;
71910;SDS011;59783;52.232;5.170;2023-02-01T14:44:25;36.00;;;16.90;;
71910;SDS011;59783;52.232;5.170;2023-02-01T14:49:50;47.53;;;18.52;;
71910;SDS011;59783;52.232;5.170;2023-02-01T14:52:14;43.55;;;16.30;;
71910;SDS011;59783;52.232;5.170;2023-02-01T14:54:41;40.53;;;16.40;;
71910;SDS011;59783;52.232;5.170;2023-02-01T14:57:11;42.25;;;16.50;;
71910;SDS011;59783;52.232;5.170;2023-02-01T14:59:39;31.77;;;16.67;;
71910;SDS011;59783;52.232;5.170;2023-02-01T15:02:07;44.70;;;16.60;;
71910;SDS011;59783;52.232;5.170;2023-02-01T15:04:42;39.13;;;16.88;;
71910;SDS011;59783;52.232;5.170;2023-02-01T15:07:11;42.55;;;17.52;;
71910;SDS011;59783;52.232;5.170;2023-02-01T15:09:37;36.75;;;16.63;;
71910;SDS011;59783;52.232;5.170;2023-02-01T15:14:36;35.03;;;17.05;;
71910;SDS011;59783;52.232;5.170;2023-02-01T15:17:02;38.22;;;16.52;;
71910;SDS011;59783;52.232;5.170;2023-02-01T15:19:28;32.88;;;16.75;;
71910;SDS011;59783;52.232;5.170;2023-02-01T15:21:55;32.85;;;16.63;;
71910;SDS011;59783;52.232;5.170;2023-02-01T15:24:28;42.47;;;15.75;;
71910;SDS011;59783;52.232;5.170;2023-02-01T15:26:54;39.88;;;16.92;;
71910;SDS011;59783;52.232;5.170;2023-02-01T15:29:20;37.35;;;15.98;;
71910;SDS011;59783;52.232;5.170;2023-02-01T15:31:48;33.90;;;17.48;;
71910;SDS011;59783;52.232;5.170;2023-02-01T15:34:13;42.17;;;17.48;;
71910;SDS011;59783;52.232;5.170;2023-02-01T15:36:39;30.07;;;16.00;;
71910;SDS011;59783;52.232;5.170;2023-02-01T15:41:44;34.90;;;16.95;;
71910;SDS011;59783;52.232;5.170;2023-02-01T15:44:18;41.40;;;16.80;;
71910;SDS011;59783;52.232;5.170;2023-02-01T15:46:45;34.03;;;15.77;;
71910;SDS011;59783;52.232;5.170;2023-02-01T15:49:23;34.78;;;16.17;;
71910;SDS011;59783;52.232;5.170;2023-02-01T15:51:49;24.15;;;16.17;;
71910;SDS011;59783;52.232;5.170;2023-02-01T15:54:16;26.55;;;15.32;;
71910;SDS011;59783;52.232;5.170;2023-02-01T15:56:44;33.88;;;15.63;;
71910;SDS011;59783;52.232;5.170;2023-02-01T15:59:16;31.13;;;16.02;;
71910;SDS011;59783;52.232;5.170;2023-02-01T16:01:42;31.23;;;16.58;;
71910;SDS011;59783;52.232;5.170;2023-02-01T16:04:19;29.77;;;15.68;;
71910;SDS011;59783;52.232;5.170;2023-02-01T16:09:16;29.60;;;16.30;;
71910;SDS011;59783;52.232;5.170;2023-02-01T16:14:19;31.98;;;15.60;;
71910;SDS011;59783;52.232;5.170;2023-02-01T16:16:44;35.05;;;16.35;;
71910;SDS011;59783;52.232;5.170;2023-02-01T16:19:10;31.23;;;15.63;;
71910;SDS011;59783;52.232;5.170;2023-02-01T16:21:35;33.45;;;15.57;;
71910;SDS011;59783;52.232;5.170;2023-02-01T16:24:00;21.10;;;16.23;;
71910;SDS011;59783;52.232;5.170;2023-02-01T16:26:28;26.35;;;15.88;;
71910;SDS011;59783;52.232;5.170;2023-02-01T16:28:54;37.30;;;16.75;;
71910;SDS011;59783;52.232;5.170;2023-02-01T16:31:20;34.67;;;17.33;;
71910;SDS011;59783;52.232;5.170;2023-02-01T16:33:47;39.30;;;18.45;;
71910;SDS011;59783;52.232;5.170;2023-02-01T16:36:13;32.22;;;16.15;;
71910;SDS011;59783;52.232;5.170;2023-02-01T16:38:39;36.05;;;16.15;;
71910;SDS011;59783;52.232;5.170;2023-02-01T16:41:05;40.17;;;17.17;;
71910;SDS011;59783;52.232;5.170;2023-02-01T16:43:30;32.60;;;16.30;;
71910;SDS011;59783;52.232;5.170;2023-02-01T16:45:57;30.45;;;15.75;;
71910;SDS011;59783;52.232;5.170;2023-02-01T16:48:30;30.73;;;16.92;;
71910;SDS011;59783;52.232;5.170;2023-02-01T16:50:57;31.17;;;15.88;;
71910;SDS011;59783;52.232;5.170;2023-02-01T16:53:23;32.95;;;15.80;;
71910;SDS011;59783;52.232;5.170;2023-02-01T16:55:48;35.75;;;16.77;;
71910;SDS011;59783;52.232;5.170;2023-02-01T16:58:14;39.55;;;16.38;;
71910;SDS011;59783;52.232;5.170;2023-02-01T17:00:40;36.50;;;16.92;;
71910;SDS011;59783;52.232;5.170;2023-02-01T17:03:05;35.60;;;16.42;;
71910;SDS011;59783;52.232;5.170;2023-02-01T17:05:31;28.47;;;15.63;;
71910;SDS011;59783;52.232;5.170;2023-02-01T17:07:56;30.33;;;16.20;;